Time;durP1;ratioP1;P1;durP2;ratioP2;P2;SDS_P1;SDS_P2;PMS_P1;PMS_P2;Temp;Humidity;BMP_temperature;BMP_pressure;BME280_temperature;BME280_humidity;BME280_pressure;Samples;Min_cycle;Max_cycle;Signal;HPM_P1;HPM_P2
2023/05/10 00:04:27;;;;;;;0.10;0.10;;;;;;;-145.06;45.13;92853.78;10355664;28;20421;-75
2023/05/10 00:09:27;;;;;;;0.10;0.10;;;;;;;-145.06;45.44;92866.03;10357589;28;20031;-75
2023/05/10 00:14:27;;;;;;;0.00;0.00;;;;;;;-145.06;46.16;92880.34;10357281;28;20025;-76
2023/05/10 00:19:28;;;;;;;0.10;0.10;;;;;;;-145.06;46.19;92878.31;10355612;28;20017;-75
2023/05/10 00:24:28;;;;;;;0.10;0.10;;;;;;;-145.06;46.74;92892.63;10355992;28;20072;-75
2023/05/10 00:29:28;;;;;;;0.10;0.10;;;;;;;-145.06;47.30;92913.06;10355931;28;20027;-75
2023/05/10 00:34:29;;;;;;;0.10;0.10;;;;;;;-145.06;48.46;92913.06;10355582;28;20296;-75
2023/05/10 00:39:29;;;;;;;0.10;0.10;;;;;;;-145.06;48.82;92941.69;10357935;28;20033;-75
2023/05/10 00:44:30;;;;;;;0.10;0.10;;;;;;;-145.06;49.29;92966.25;10356280;28;20633;-75
2023/05/10 00:49:31;;;;;;;0.00;0.00;;;;;;;-145.06;50.40;92958.06;10358098;28;20506;-76
2023/05/10 00:54:31;;;;;;;0.10;0.10;;;;;;;-145.06;50.78;92974.41;10356053;28;20083;-75
2023/05/10 00:59:32;;;;;;;0.10;0.10;;;;;;;-145.06;51.90;93023.50;10358027;28;20033;-75
2023/05/10 01:04:32;;;;;;;0.10;0.10;;;;;;;-145.06;52.82;93035.78;10356246;28;20026;-75
2023/05/10 01:09:33;;;;;;;0.10;0.10;;;;;;;-145.06;53.29;93068.50;10354182;28;20025;-76
2023/05/10 01:14:36;;;;;;;0.10;0.10;;;;;;;-145.06;54.25;93074.63;10360731;28;20109;-75
2023/05/10 01:19:37;;;;;;;0.10;0.10;;;;;;;-145.06;54.95;93093.03;10364861;28;20555;-75
2023/05/10 01:24:57;;;;;;;0.10;0.10;;;;;;;-145.06;55.67;93101.22;10366100;28;20033;-76
2023/05/10 01:30:31;;;;;;;0.10;0.10;;;;;;;-145.06;56.69;93103.25;10366167;28;20026;-75
2023/05/10 01:35:47;;;;;;;0.10;0.10;;;;;;;-145.06;57.86;93138.03;10366412;28;20649;-75
2023/05/10 01:41:05;;;;;;;0.00;0.00;;;;;;;-145.06;58.09;93131.91;10366303;28;20103;-75
2023/05/10 01:46:11;;;;;;;0.10;0.10;;;;;;;-145.06;58.56;93172.78;10365987;28;20183;-75
2023/05/10 01:51:15;;;;;;;0.10;0.10;;;;;;;-145.06;59.03;93168.72;10366240;28;20147;-75
2023/05/10 01:56:19;;;;;;;0.10;0.10;;;;;;;-145.06;59.44;93117.56;10361318;28;20029;-75
2023/05/10 02:01:21;;;;;;;0.10;0.10;;;;;;;-145.06;59.72;93152.34;10364565;28;20045;-75
2023/05/10 02:06:23;;;;;;;0.10;0.10;;;;;;;-145.06;60.23;93197.34;10366660;28;20025;-75
2023/05/10 02:11:25;;;;;;;0.10;0.10;;;;;;;-145.06;60.23;93162.56;10365709;28;20054;-75
2023/05/10 02:16:27;;;;;;;0.00;0.00;;;;;;;-145.06;60.86;93162.56;10366621;28;20037;-75
2023/05/10 02:21:30;;;;;;;0.10;0.10;;;;;;;-145.06;61.04;93174.84;10365062;28;20018;-75
2023/05/10 02:26:33;;;;;;;0.10;0.10;;;;;;;-145.06;60.84;93223.94;10366050;28;20031;-75
2023/05/10 02:31:35;;;;;;;0.05;0.05;;;;;;;-145.06;61.25;93152.34;10363351;28;20105;-75
2023/05/10 02:36:36;;;;;;;0.10;0.10;;;;;;;-145.06;62.29;93205.53;10365509;28;20022;-75
2023/05/10 02:41:37;;;;;;;0.10;0.10;;;;;;;-145.06;61.97;93174.84;10364517;28;20446;-76
2023/05/10 02:46:38;;;;;;;0.10;0.10;;;;;;;-145.06;62.09;93178.94;10366412;28;20029;-76
2023/05/10 02:51:44;;;;;;;0.10;0.10;;;;;;;-145.06;62.58;93178.94;10365707;28;20644;-76
2023/05/10 02:56:49;;;;;;;0.00;0.00;;;;;;;-145.06;63.09;93203.47;10365251;28;20029;-76
2023/05/10 03:01:49;;;;;;;0.03;0.03;;;;;;;-145.06;63.31;93185.06;10363567;28;20037;-76
2023/05/10 03:06:50;;;;;;;0.05;0.05;;;;;;;-145.06;63.53;93189.16;10361087;28;20036;-75
2023/05/10 03:12:00;;;;;;;0.10;0.10;;;;;;;-145.06;nan;93162.56;10365135;28;20115;-76
2023/05/10 03:17:08;;;;;;;0.10;0.10;;;;;;;-145.06;63.25;93138.03;10365806;28;20029;-75
2023/05/10 03:22:10;;;;;;;0.10;0.10;;;;;;;-145.06;63.32;93117.56;10364491;28;20500;-75
2023/05/10 03:27:13;;;;;;;0.15;0.15;;;;;;;-145.06;63.73;93080.75;10363736;28;20394;-75
2023/05/10 03:32:13;;;;;;;0.10;0.10;;;;;;;-145.06;63.19;93095.09;10358702;28;20040;-75
2023/05/10 03:37:14;;;;;;;0.10;0.10;;;;;;;-145.06;63.32;92475.47;10363347;28;20024;-76
2023/05/10 03:42:14;;;;;;;0.10;0.10;;;;;;;-145.06;62.77;92389.59;10365545;28;20022;-75
2023/05/10 03:47:14;;;;;;;0.10;0.10;;;;;;;-145.06;62.45;92598.16;10366485;28;20026;-76
2023/05/10 03:52:15;;;;;;;0.00;0.00;;;;;;;-145.06;62.54;92363.00;10365325;28;20044;-75
2023/05/10 03:57:15;;;;;;;0.00;0.00;;;;;;;-145.06;62.28;92410.03;10346438;28;20188;-76
2023/05/10 04:02:15;;;;;;;0.10;0.10;;;;;;;-145.06;61.72;92291.44;10336576;28;20022;-75
2023/05/10 04:07:16;;;;;;;0.10;0.10;;;;;;;-145.06;61.55;92285.31;10363655;28;20036;-75
2023/05/10 04:12:16;;;;;;;0.10;0.10;;;;;;;-145.06;60.99;92291.44;10360254;28;20340;-75
2023/05/10 04:17:16;;;;;;;0.10;0.10;;;;;;;-145.06;60.66;92254.63;10358688;28;20337;-75
2023/05/10 04:22:17;;;;;;;0.10;0.10;;;;;;;-145.06;60.57;92318.00;10362451;28;20029;-75
2023/05/10 04:27:17;;;;;;;0.10;0.10;;;;;;;-145.06;60.83;92346.66;10361496;28;20390;-75
2023/05/10 04:32:18;;;;;;;0.10;0.10;;;;;;;-145.06;60.56;92228.06;10353519;28;20025;-75
2023/05/10 04:37:21;;;;;;;0.00;0.00;;;;;;;-145.06;59.54;92115.59;10345291;28;20509;-76
2023/05/10 04:42:21;;;;;;;0.10;0.10;;;;;;;-145.06;58.11;92031.78;10348150;28;20416;-76
2023/05/10 04:47:21;;;;;;;0.10;0.10;;;;;;;-145.06;56.34;92031.78;10349918;28;20021;-76
2023/05/10 04:52:22;;;;;;;0.00;0.00;;;;;;;-145.06;56.12;92007.22;10345012;28;20025;-76
2023/05/10 04:57:22;;;;;;;0.10;0.10;;;;;;;-145.06;56.23;91931.59;10348319;28;20022;-75
2023/05/10 05:02:23;;;;;;;0.10;0.10;;;;;;;-145.06;54.27;91721.00;10347215;28;20022;-75
2023/05/10 05:07:23;;;;;;;0.10;0.10;;;;;;;-145.06;51.06;91577.91;10341550;28;20033;-76
2023/05/10 05:12:24;;;;;;;0.10;0.10;;;;;;;-145.06;50.26;91696.47;10345172;28;20029;-75
2023/05/10 05:17:24;;;;;;;0.05;0.05;;;;;;;-145.06;51.72;91849.81;10349319;28;20473;-76
2023/05/10 05:22:27;;;;;;;0.10;0.10;;;;;;;-145.06;51.83;91874.34;10343119;28;20057;-75
2023/05/10 05:27:28;;;;;;;0.10;0.10;;;;;;;-145.06;52.03;91988.84;10346091;28;20470;-75
2023/05/10 05:32:28;;;;;;;0.10;0.10;;;;;;;-145.06;53.25;92068.56;10349277;28;20033;-75
2023/05/10 05:37:28;;;;;;;0.10;0.10;;;;;;;-145.06;54.08;92111.50;10336917;28;20080;-75
2023/05/10 05:42:31;;;;;;;0.10;0.10;;;;;;;-145.06;55.70;92181.03;10352671;28;20029;-75
2023/05/10 05:47:31;;;;;;;0.10;0.10;;;;;;;-145.06;57.30;92144.22;10353804;28;20030;-76
2023/05/10 05:52:31;;;;;;;0.00;0.00;;;;;;;-145.06;56.64;92119.69;10348001;28;20472;-75
2023/05/10 05:57:32;;;;;;;0.10;0.10;;;;;;;-145.06;56.02;92089.03;10348404;28;20389;-75
2023/05/10 06:02:33;;;;;;;0.10;0.10;;;;;;;-145.06;56.08;92076.75;10358613;28;20153;-75
2023/05/10 06:07:33;;;;;;;0.00;0.00;;;;;;;-145.06;56.44;92129.91;10353880;28;20163;-75
2023/05/10 06:12:34;;;;;;;0.10;0.10;;;;;;;-145.06;56.86;92103.31;10355157;28;20918;-75
2023/05/10 06:17:34;;;;;;;0.10;0.10;;;;;;;-145.06;56.68;92086.97;10359787;28;20041;-75
2023/05/10 06:22:34;;;;;;;0.10;0.10;;;;;;;-145.06;57.62;92136.03;10353795;28;20386;-75
2023/05/10 06:27:35;;;;;;;0.10;0.10;;;;;;;-145.06;56.09;92068.56;10357415;28;20031;-75
2023/05/10 06:32:35;;;;;;;0.10;0.10;;;;;;;-145.06;57.63;92119.69;10354573;28;20030;-75
2023/05/10 06:37:35;;;;;;;0.00;0.00;;;;;;;-145.06;57.84;92181.03;10351440;28;20404;-75
2023/05/10 06:42:36;;;;;;;0.10;0.10;;;;;;;-145.06;57.87;92162.63;10352828;28;20025;-75
2023/05/10 06:47:36;;;;;;;0.10;0.10;;;;;;;-145.06;58.69;92181.03;10360171;28;20034;-75
2023/05/10 06:52:37;;;;;;;0.10;0.10;;;;;;;-145.06;58.56;92183.06;10357367;28;20117;-75
2023/05/10 06:57:37;;;;;;;0.10;0.10;;;;;;;-145.06;58.88;92156.50;10354633;28;20440;-75
2023/05/10 07:02:38;;;;;;;0.10;0.10;;;;;;;-145.06;59.26;92136.03;10357505;28;20022;-75
2023/05/10 07:07:38;;;;;;;0.10;0.10;;;;;;;-145.06;59.79;92142.19;10359871;28;20521;-75
2023/05/10 07:12:39;;;;;;;0.10;0.10;;;;;;;-145.06;60.83;92205.56;10343856;28;20474;-75
2023/05/10 07:17:39;;;;;;;0.10;0.10;;;;;;;-145.06;59.21;92189.19;10356013;28;20023;-75
2023/05/10 07:22:40;;;;;;;0.10;0.10;;;;;;;-145.06;59.87;92170.81;10357008;28;20471;-75
2023/05/10 07:27:40;;;;;;;0.10;0.10;;;;;;;-145.06;59.81;92172.84;10356196;28;20041;-75
2023/05/10 07:32:41;;;;;;;0.10;0.10;;;;;;;-145.06;60.09;92164.66;10374121;22;20045;-75
2023/05/10 07:37:41;;;;;;;0.00;0.00;;;;;;;-145.06;61.00;92172.84;10370652;28;20029;-75
2023/05/10 07:42:42;;;;;;;0.08;0.08;;;;;;;-145.06;61.86;92230.09;10370829;28;20018;-75
2023/05/10 07:47:42;;;;;;;0.10;0.10;;;;;;;-145.06;61.21;92242.38;10370715;28;20037;-74
2023/05/10 07:52:42;;;;;;;0.10;0.10;;;;;;;-145.06;63.32;92293.47;10357435;28;20622;-73
2023/05/10 07:57:43;;;;;;;0.10;0.10;;;;;;;-145.06;62.42;92287.34;10370350;28;20050;-74
2023/05/10 08:02:43;;;;;;;0.10;0.10;;;;;;;-145.06;69.02;92360.97;10352363;28;20025;-75
2023/05/10 08:07:43;;;;;;;0.10;0.10;;;;;;;-145.06;75.24;92393.66;10369710;28;20316;-75
2023/05/10 08:12:44;;;;;;;0.10;0.10;;;;;;;-145.06;82.69;92452.97;10371706;28;20034;-75
2023/05/10 08:17:44;;;;;;;0.10;0.10;;;;;;;-145.06;82.13;92438.66;10373522;28;20061;-75
2023/05/10 08:22:46;;;;;;;0.08;0.08;;;;;;;-145.06;84.09;92446.84;10375648;28;20025;-75
2023/05/10 08:27:46;;;;;;;0.10;0.10;;;;;;;-145.06;86.07;92401.84;10368813;28;20033;-75
2023/05/10 08:32:46;;;;;;;0.10;0.10;;;;;;;-145.06;85.17;92430.47;10369251;28;20034;-75
2023/05/10 08:37:47;;;;;;;0.10;0.10;;;;;;;-145.06;84.00;92369.13;10369150;28;20387;-73
2023/05/10 08:43:08;;;;;;;0.10;0.10;;;;;;;-145.06;85.66;92377.31;10368512;28;20026;-74
2023/05/10 08:48:10;;;;;;;0.05;0.05;;;;;;;-145.06;83.85;92436.63;10350709;28;20058;-75
2023/05/10 08:53:12;;;;;;;0.10;0.10;;;;;;;-145.06;85.73;92446.84;10351125;28;20473;-75
2023/05/10 08:58:13;;;;;;;0.00;0.00;;;;;;;-145.06;88.43;92485.69;10368519;28;20022;-75
2023/05/10 09:03:14;;;;;;;0.10;0.10;;;;;;;-145.06;92.28;92563.38;10369301;28;20528;-75
2023/05/10 09:08:16;;;;;;;0.10;0.10;;;;;;;-145.06;96.32;92624.72;10368470;28;20092;-73
2023/05/10 09:13:17;;;;;;;0.10;0.10;;;;;;;-145.06;100.00;92643.13;10370093;28;20066;-75
2023/05/10 09:18:17;;;;;;;0.00;0.00;;;;;;;-145.06;100.00;92679.94;10368150;28;20581;-74
2023/05/10 09:23:17;;;;;;;0.00;0.00;;;;;;;-145.06;100.00;92743.34;10368208;28;20029;-74
2023/05/10 09:28:17;;;;;;;0.10;0.10;;;;;;;-145.06;100.00;92810.81;10370855;28;20026;-75
2023/05/10 09:33:18;;;;;;;0.10;0.10;;;;;;;-145.06;100.00;92917.16;10349797;28;20038;-76
2023/05/10 09:38:19;;;;;;;0.10;0.10;;;;;;;-145.06;100.00;93172.78;10381186;28;20473;-76
2023/05/10 09:43:20;;;;;;;0.10;0.10;;;;;;;-145.06;100.00;93135.97;10349221;28;20417;-75
2023/05/10 09:48:23;;;;;;;0.10;0.10;;;;;;;-145.06;100.00;93125.75;10370666;28;20751;-74
2023/05/10 09:53:24;;;;;;;0.10;0.10;;;;;;;-145.06;100.00;93144.16;10392307;28;20031;-76
2023/05/10 09:58:24;;;;;;;0.10;0.10;;;;;;;-145.06;100.00;93099.16;10367619;28;20274;-76
2023/05/10 10:03:25;;;;;;;0.10;0.10;;;;;;;-145.06;100.00;93105.31;10383380;28;20025;-76
2023/05/10 10:08:26;;;;;;;0.10;0.10;;;;;;;-145.06;100.00;93019.41;10385188;28;20018;-76
2023/05/10 10:13:27;;;;;;;0.10;0.10;;;;;;;-145.06;100.00;93072.59;10365740;28;20119;-76
2023/05/10 10:18:28;;;;;;;0.10;0.10;;;;;;;-145.06;100.00;93019.41;10383809;28;20113;-75
2023/05/10 10:23:28;;;;;;;0.10;0.10;;;;;;;-145.06;100.00;93113.50;10386455;28;20021;-75
2023/05/10 10:28:51;;;;;;;0.00;0.00;;;;;;;-145.06;100.00;93058.28;10379995;28;20554;-75
2023/05/10 10:34:25;;;;;;;0.10;0.10;;;;;;;-145.06;100.00;93129.84;10382112;28;20025;-75
2023/05/10 10:39:26;;;;;;;0.10;0.10;;;;;;;-145.06;100.00;93031.69;10371668;28;20038;-74
2023/05/10 10:44:36;;;;;;;0.10;0.10;;;;;;;-145.06;100.00;93064.41;10380539;28;20103;-75
2023/05/10 10:49:39;;;;;;;0.10;0.10;;;;;;;-145.06;100.00;93054.19;10376042;28;20033;-75
2023/05/10 10:54:39;;;;;;;0.10;0.10;;;;;;;-145.06;100.00;93097.13;10368935;28;20030;-75
2023/05/10 10:59:43;;;;;;;0.10;0.10;;;;;;;-145.06;100.00;93138.03;10387156;28;20022;-74
2023/05/10 11:04:46;;;;;;;0.10;0.10;;;;;;;-145.06;100.00;93305.72;10392653;28;20126;-75
2023/05/10 11:09:49;;;;;;;0.10;0.10;;;;;;;-145.06;100.00;93250.50;10392369;28;20026;-74
2023/05/10 11:14:51;;;;;;;0.10;0.10;;;;;;;-145.06;100.00;93207.56;10362365;28;20065;-75
2023/05/10 11:20:13;;;;;;;0.00;0.00;;;;;;;-145.06;100.00;93162.56;10363665;28;20022;-75
2023/05/10 11:25:13;;;;;;;0.00;0.00;;;;;;;-145.06;100.00;93064.41;10388636;28;20025;-75
2023/05/10 11:30:14;;;;;;;0.10;0.10;;;;;;;-145.06;100.00;92931.47;10378373;28;20022;-74
2023/05/10 11:35:14;;;;;;;0.10;0.10;;;;;;;-145.06;100.00;92994.88;10355502;28;20395;-75
2023/05/10 11:40:15;;;;;;;0.10;0.10;;;;;;;-145.06;100.00;93105.31;10377822;28;20060;-75
2023/05/10 11:45:15;;;;;;;0.10;0.10;;;;;;;-145.06;100.00;93166.66;10381342;28;20025;-75
2023/05/10 11:50:17;;;;;;;0.03;0.03;;;;;;;-145.06;100.00;93209.59;10382255;28;20429;-75
2023/05/10 11:55:17;;;;;;;0.00;0.00;;;;;;;-145.06;100.00;93068.50;10385323;28;20029;-75
2023/05/10 12:00:18;;;;;;;0.10;0.10;;;;;;;-145.06;100.00;93101.22;10384288;28;20067;-75
2023/05/10 12:05:18;;;;;;;0.10;0.10;;;;;;;-145.06;100.00;93091.00;10377702;28;20100;-75
2023/05/10 12:10:26;;;;;;;0.10;0.10;;;;;;;-145.06;100.00;93003.06;10368511;28;20489;-75
2023/05/10 12:15:27;;;;;;;0.10;0.10;;;;;;;-145.06;100.00;92982.59;10367064;28;20033;-75
2023/05/10 12:20:28;;;;;;;0.10;0.10;;;;;;;-145.06;100.00;93011.22;10380324;28;20500;-75
2023/05/10 12:25:36;;;;;;;0.10;0.10;;;;;;;-145.06;100.00;92982.59;10377421;28;20021;-74
2023/05/10 12:30:37;;;;;;;0.10;0.10;;;;;;;-145.06;100.00;92913.06;10375645;28;20030;-74
2023/05/10 12:35:47;;;;;;;0.10;0.10;;;;;;;-145.06;100.00;92855.81;10365829;28;20053;-75
2023/05/10 12:40:47;;;;;;;0.00;0.00;;;;;;;-145.06;100.00;92902.84;10362926;28;20159;-74
2023/05/10 12:45:48;;;;;;;0.10;0.10;;;;;;;-145.06;100.00;92933.53;10360859;28;20095;-74
2023/05/10 12:50:48;;;;;;;0.10;0.10;;;;;;;-145.06;100.00;92849.69;10377739;28;20550;-75
2023/05/10 12:55:49;;;;;;;0.10;0.10;;;;;;;-145.06;100.00;92929.44;10380527;28;20021;-75
2023/05/10 13:00:51;;;;;;;0.10;0.10;;;;;;;-145.06;100.00;92880.34;10373542;28;20022;-75
2023/05/10 13:05:51;;;;;;;0.10;0.10;;;;;;;-145.06;100.00;92886.50;10359879;28;20033;-75
2023/05/10 13:10:52;;;;;;;0.10;0.10;;;;;;;-145.06;100.00;92929.44;10381738;28;20397;-75
2023/05/10 13:15:52;;;;;;;0.00;0.00;;;;;;;-145.06;100.00;92911.03;10384462;28;20029;-76
2023/05/10 13:20:53;;;;;;;0.10;0.10;;;;;;;-145.06;100.00;92851.72;10385141;28;20020;-75
2023/05/10 13:25:53;;;;;;;0.10;0.10;;;;;;;-145.06;100.00;92861.94;10379086;28;20121;-75
2023/05/10 13:36:05;;;;;;;0.10;0.10;;;;;;;-145.06;100.00;93084.84;10372523;28;20076;-76
2023/05/10 13:41:06;;;;;;;0.00;0.00;;;;;;;-145.06;100.00;93064.41;10373446;28;20488;-76
2023/05/10 13:46:06;;;;;;;0.10;0.10;;;;;;;-145.06;100.00;92974.41;10384815;28;20030;-76
2023/05/10 13:51:06;;;;;;;0.10;0.10;;;;;;;-145.06;100.00;92941.69;10353942;28;20179;-76
2023/05/10 13:56:07;;;;;;;0.05;0.05;;;;;;;-145.06;100.00;92855.81;10382090;28;20032;-76
2023/05/10 14:01:07;;;;;;;0.10;0.10;;;;;;;-145.06;100.00;92851.72;10376514;28;20496;-76
2023/05/10 14:06:08;;;;;;;0.10;0.10;;;;;;;-145.06;100.00;92851.72;10372666;28;20488;-76
2023/05/10 14:11:08;;;;;;;0.10;0.10;;;;;;;-145.06;100.00;92913.06;10370345;28;20030;-76
2023/05/10 14:16:08;;;;;;;0.00;0.00;;;;;;;-145.06;100.00;92855.81;10382713;28;20043;-75
2023/05/10 14:21:09;;;;;;;0.00;0.00;;;;;;;-145.06;100.00;92831.28;10368428;28;20380;-75
2023/05/10 14:26:09;;;;;;;0.10;0.10;;;;;;;-145.06;100.00;92794.47;10370633;28;20494;-75
2023/05/10 14:31:09;;;;;;;0.10;0.10;;;;;;;-145.06;100.00;92847.63;10368023;28;20033;-75
2023/05/10 14:36:10;;;;;;;0.10;0.10;;;;;;;-145.06;100.00;92937.63;10377088;28;20268;-75
2023/05/10 14:41:13;;;;;;;0.00;0.00;;;;;;;-145.06;100.00;92945.78;10377677;28;20465;-77
2023/05/10 14:46:14;;;;;;;0.10;0.10;;;;;;;-145.06;100.00;92978.50;10370154;28;20319;-76
2023/05/10 14:51:14;;;;;;;0.10;0.10;;;;;;;-145.06;100.00;92974.41;10371377;28;20030;-76
2023/05/10 14:56:15;;;;;;;0.00;0.00;;;;;;;-145.06;100.00;93025.56;10372259;28;20026;-78
2023/05/10 15:01:15;;;;;;;0.10;0.10;;;;;;;-145.06;100.00;93129.84;10378575;28;20010;-79
2023/05/10 15:06:16;;;;;;;0.10;0.10;;;;;;;-145.06;100.00;93103.25;10362194;28;20388;-77
2023/05/10 15:11:16;;;;;;;0.10;0.10;;;;;;;-145.06;100.00;93101.22;10378429;28;20484;-78
2023/05/10 15:16:16;;;;;;;0.00;0.00;;;;;;;-145.06;100.00;93166.66;10386192;28;20020;-77
2023/05/10 15:21:17;;;;;;;0.10;0.10;;;;;;;-145.06;100.00;93146.22;10358476;28;20014;-77
2023/05/10 15:26:17;;;;;;;0.10;0.10;;;;;;;-145.06;100.00;93133.94;10375333;28;20033;-77
2023/05/10 15:31:17;;;;;;;0.00;0.00;;;;;;;-145.06;100.00;93207.56;10388779;28;20030;-77
2023/05/10 15:36:17;;;;;;;0.00;0.00;;;;;;;-145.06;100.00;93375.28;10380852;28;20480;-79
2023/05/10 15:41:18;;;;;;;0.10;0.10;;;;;;;-145.06;100.00;93886.63;10387591;28;20018;-77
2023/05/10 15:46:18;;;;;;;0.00;0.00;;;;;;;-145.06;100.00;93990.94;10395159;28;20468;-77
2023/05/10 15:51:18;;;;;;;0.00;0.00;;;;;;;-145.06;100.00;93980.72;10390042;28;20025;-77
2023/05/10 15:56:19;;;;;;;0.10;0.10;;;;;;;-145.06;100.00;93299.59;10379210;28;20021;-77
2023/05/10 16:01:19;;;;;;;0.10;0.10;;;;;;;-145.06;100.00;93187.13;10380338;28;20401;-78
2023/05/10 16:06:20;;;;;;;0.00;0.00;;;;;;;-145.06;100.00;93097.13;10351786;28;20475;-79
2023/05/10 16:11:20;;;;;;;0.10;0.10;;;;;;;-145.06;100.00;93387.53;10365124;28;20022;-77
2023/05/10 16:16:21;;;;;;;0.10;0.10;;;;;;;-145.06;100.00;93305.72;10365955;28;20480;-76
2023/05/10 16:21:21;;;;;;;0.00;0.00;;;;;;;-145.06;100.00;93336.41;10369571;28;20018;-78
2023/05/10 16:26:22;;;;;;;0.10;0.10;;;;;;;-145.06;100.00;93943.88;10373291;28;20251;-77
2023/05/10 16:31:23;;;;;;;0.00;0.00;;;;;;;-145.06;100.00;94013.44;10366449;28;20018;-77
2023/05/10 16:36:23;;;;;;;0.10;0.10;;;;;;;-145.06;100.00;94099.34;10367336;28;20032;-77
2023/05/10 16:41:25;;;;;;;0.10;0.10;;;;;;;-145.06;100.00;94111.63;10368557;28;20250;-75
2023/05/10 16:46:25;;;;;;;0.10;0.10;;;;;;;-145.06;100.00;94125.94;10389472;28;20030;-76
2023/05/10 16:51:26;;;;;;;0.10;0.10;;;;;;;-145.06;100.00;94156.63;10385917;28;20026;-76
2023/05/10 16:56:26;;;;;;;0.00;0.00;;;;;;;-145.06;100.00;94213.91;10386621;28;20431;-75
2023/05/10 17:01:26;;;;;;;0.10;0.10;;;;;;;-145.06;100.00;94273.22;10372820;28;20009;-78
2023/05/10 17:06:26;;;;;;;0.10;0.10;;;;;;;-145.06;100.00;94250.72;10349935;28;20018;-77
2023/05/10 17:11:28;;;;;;;0.10;0.10;;;;;;;-145.06;100.00;94314.16;10366761;28;20025;-77
2023/05/10 17:16:28;;;;;;;0.10;0.10;;;;;;;-145.06;100.00;94295.72;10366443;28;20017;-77
2023/05/10 17:21:29;;;;;;;0.10;0.10;;;;;;;-145.06;100.00;94312.09;10371623;28;20026;-76
2023/05/10 17:26:29;;;;;;;0.10;0.10;;;;;;;-145.06;100.00;94369.38;10358109;28;20041;-76
2023/05/10 17:31:29;;;;;;;0.10;0.10;;;;;;;-145.06;100.00;94297.78;10369689;28;20037;-77
2023/05/10 17:36:30;;;;;;;0.00;0.00;;;;;;;-145.06;100.00;94258.91;10376960;28;20269;-78
2023/05/10 17:41:30;;;;;;;0.10;0.10;;;;;;;-145.06;100.00;94246.63;10371413;28;20257;-76
2023/05/10 17:46:31;;;;;;;0.10;0.10;;;;;;;-145.06;100.00;94285.50;10366333;28;20026;-76
2023/05/10 17:51:32;;;;;;;0.00;0.00;;;;;;;-145.06;100.00;94226.19;10365540;28;20021;-76
2023/05/10 17:56:32;;;;;;;0.10;0.10;;;;;;;-145.06;100.00;94240.50;10369582;28;20032;-77
2023/05/10 18:01:33;;;;;;;0.00;0.00;;;;;;;-145.06;100.00;94197.53;10371254;28;20311;-76
2023/05/10 18:06:37;;;;;;;0.10;0.10;;;;;;;-145.06;100.00;94271.19;10380699;28;20026;-76
2023/05/10 18:11:38;;;;;;;0.10;0.10;;;;;;;-145.06;100.00;94316.19;10370477;28;20026;-76
2023/05/10 18:16:38;;;;;;;0.10;0.10;;;;;;;-145.06;100.00;94297.78;10374785;28;20025;-76
2023/05/10 18:21:39;;;;;;;0.10;0.10;;;;;;;-145.06;100.00;94342.78;10374226;28;20030;-77
2023/05/10 18:26:39;;;;;;;0.00;0.00;;;;;;;-145.06;100.00;94283.47;10377171;28;20033;-77
2023/05/10 18:31:39;;;;;;;0.10;0.10;;;;;;;-145.06;100.00;94283.47;10382531;28;20501;-78
2023/05/10 18:36:42;;;;;;;0.10;0.10;;;;;;;-145.06;100.00;94383.69;10353484;28;20026;-76
2023/05/10 18:41:44;;;;;;;0.10;0.10;;;;;;;-145.06;100.00;94375.53;10372381;28;20025;-76
2023/05/10 18:46:44;;;;;;;0.10;0.10;;;;;;;-145.06;100.00;94381.66;10356062;28;20099;-76
2023/05/10 18:51:45;;;;;;;0.10;0.10;;;;;;;-145.06;100.00;94379.59;10376260;28;20030;-76
2023/05/10 18:56:46;;;;;;;0.10;0.10;;;;;;;-145.06;100.00;94443.03;10373914;28;20037;-76
2023/05/10 19:01:46;;;;;;;0.10;0.10;;;;;;;-145.06;100.00;94463.50;10382308;28;20018;-76
2023/05/10 19:06:46;;;;;;;0.10;0.10;;;;;;;-145.06;100.00;94447.13;10374194;28;20645;-78
2023/05/10 19:11:47;;;;;;;0.10;0.10;;;;;;;-145.06;100.00;94506.44;10369364;28;20582;-78
2023/05/10 19:16:47;;;;;;;0.10;0.10;;;;;;;-145.06;100.00;94494.16;10372148;28;20056;-77
2023/05/10 19:21:48;;;;;;;0.00;0.00;;;;;;;-145.06;100.00;94553.50;10375406;28;20079;-77
2023/05/10 19:26:48;;;;;;;0.10;0.10;;;;;;;-145.06;100.00;94576.00;10351889;28;20404;-76
2023/05/10 19:31:51;;;;;;;0.10;0.10;;;;;;;-145.06;100.00;94569.88;10377016;28;20477;-76
2023/05/10 19:36:51;;;;;;;0.10;0.10;;;;;;;-145.06;100.00;94651.69;10381393;28;20064;-77
2023/05/10 19:41:51;;;;;;;0.10;0.10;;;;;;;-145.06;100.00;94653.75;10371809;28;20032;-77
2023/05/10 19:46:52;;;;;;;0.10;0.10;;;;;;;-145.06;100.00;94645.56;10383804;28;20404;-76
2023/05/10 19:51:52;;;;;;;0.10;0.10;;;;;;;-145.06;100.00;94663.97;10367117;28;20033;-76
2023/05/10 19:56:52;;;;;;;0.10;0.10;;;;;;;-145.06;100.00;94657.84;10385371;28;20269;-76
2023/05/10 20:01:52;;;;;;;0.10;0.10;;;;;;;-145.06;100.00;94713.09;10367630;28;20017;-76
2023/05/10 20:06:53;;;;;;;0.10;0.10;;;;;;;-145.06;100.00;94711.03;10366551;28;20347;-76
2023/05/10 20:11:53;;;;;;;0.10;0.10;;;;;;;-145.06;100.00;94729.44;10373001;28;20021;-77
2023/05/10 20:16:53;;;;;;;0.10;0.10;;;;;;;-145.06;100.00;94729.44;10367214;28;20496;-77
2023/05/10 20:21:56;;;;;;;0.10;0.10;;;;;;;-145.06;100.00;94749.91;10371661;28;20485;-77
2023/05/10 20:26:56;;;;;;;0.10;0.10;;;;;;;-145.06;100.00;94725.34;10373760;28;20026;-76
2023/05/10 20:31:58;;;;;;;0.10;0.10;;;;;;;-145.06;100.00;94768.31;10375449;28;20026;-77
2023/05/10 20:36:58;;;;;;;0.10;0.10;;;;;;;-145.06;100.00;94807.19;10367770;28;20172;-77
2023/05/10 20:41:58;;;;;;;0.10;0.10;;;;;;;-145.06;100.00;94815.38;10386320;28;20080;-77
2023/05/10 20:46:59;;;;;;;0.10;0.10;;;;;;;-145.06;100.00;94839.94;10362297;28;20037;-76
2023/05/10 20:51:59;;;;;;;0.10;0.10;;;;;;;-145.06;100.00;94839.94;10372592;28;20072;-76
2023/05/10 20:57:03;;;;;;;0.10;0.10;;;;;;;-145.06;100.00;94805.16;10367012;28;20072;-76
2023/05/10 21:02:03;;;;;;;0.13;0.13;;;;;;;-145.06;100.00;94870.63;10365646;28;20022;-76
2023/05/10 21:07:03;;;;;;;0.03;0.03;;;;;;;-145.06;100.00;94844.03;10381677;28;20025;-76
2023/05/10 21:12:04;;;;;;;0.10;0.10;;;;;;;-145.06;100.00;94884.94;10374055;28;20029;-76
2023/05/10 21:17:04;;;;;;;0.10;0.10;;;;;;;-145.06;100.00;94884.94;10360726;28;20030;-76
2023/05/10 21:22:05;;;;;;;0.10;0.10;;;;;;;-145.06;100.00;94868.56;10378650;28;20014;-76
2023/05/10 21:27:06;;;;;;;0.10;0.10;;;;;;;-145.06;100.00;94882.91;10378355;28;20022;-75
2023/05/10 21:32:06;;;;;;;0.10;0.10;;;;;;;-145.06;100.00;94901.31;10383592;28;20056;-76
2023/05/10 21:37:06;;;;;;;0.10;0.10;;;;;;;-145.06;100.00;94901.31;10384943;28;20566;-76
2023/05/10 21:42:07;;;;;;;0.10;0.10;;;;;;;-145.06;100.00;94940.19;10380606;28;20026;-76
2023/05/10 21:47:07;;;;;;;0.10;0.10;;;;;;;-145.06;100.00;94948.38;10355536;28;20401;-76
2023/05/10 21:52:07;;;;;;;0.10;0.10;;;;;;;-145.06;100.00;94936.09;10360268;28;20076;-76
2023/05/10 21:57:08;;;;;;;0.10;0.10;;;;;;;-145.06;100.00;94950.41;10379183;28;20613;-76
2023/05/10 22:02:08;;;;;;;0.10;0.10;;;;;;;-145.06;100.00;94974.97;10382605;28;20022;-76
2023/05/10 22:07:08;;;;;;;0.10;0.10;;;;;;;-145.06;100.00;94993.38;10391325;28;20079;-76
2023/05/10 22:12:09;;;;;;;0.10;0.10;;;;;;;-145.06;100.00;94972.91;10392059;28;20288;-77
2023/05/10 22:17:09;;;;;;;0.10;0.10;;;;;;;-145.06;100.00;94966.78;10371956;28;20021;-77
2023/05/10 22:22:09;;;;;;;0.10;0.10;;;;;;;-145.06;100.00;95048.63;10370638;28;20450;-76
2023/05/10 22:27:10;;;;;;;0.10;0.10;;;;;;;-145.06;100.00;95052.72;10369999;28;20071;-76
2023/05/10 22:32:10;;;;;;;0.10;0.10;;;;;;;-145.06;100.00;95056.81;10369907;28;20041;-76
2023/05/10 22:37:13;;;;;;;0.10;0.10;;;;;;;-145.06;100.00;95069.09;10370999;28;20121;-76
2023/05/10 22:42:13;;;;;;;0.10;0.10;;;;;;;-145.06;100.00;95075.22;10362079;28;20017;-77
2023/05/10 22:47:15;;;;;;;0.10;0.10;;;;;;;-145.06;100.00;95116.16;10376928;28;20022;-76